Time;durP1;ratioP1;P1;durP2;ratioP2;P2;SDS_P1;SDS_P2;PMS_P1;PMS_P2;Temp;Humidity;BMP_temperature;BMP_pressure;BME280_temperature;BME280_humidity;BME280_pressure;Samples;Min_cycle;Max_cycle;Signal;HPM_P1;HPM_P2
2022/07/15 00:00:39;;;;;;;;;;;22.30;57.10;;;;;;5029407;28;87030;-44
2022/07/15 00:03:05;;;;;;;;;;;22.30;57.10;;;;;;5029230;28;83585;-44
2022/07/15 00:05:31;;;;;;;;;;;22.30;57.10;;;;;;5029080;28;82947;-44
2022/07/15 00:08:00;;;;;;;;;;;22.20;57.10;;;;;;5028823;28;82135;-44
2022/07/15 00:10:26;;;;;;;;;;;22.20;57.10;;;;;;5028820;28;82405;-44
2022/07/15 00:12:52;;;;;;;;;;;22.20;57.10;;;;;;5028634;28;83134;-44
2022/07/15 00:15:20;;;;;;;;;;;22.20;57.10;;;;;;5028861;28;82038;-44
2022/07/15 00:17:46;;;;;;;;;;;22.20;57.10;;;;;;5029105;28;83734;-44
2022/07/15 00:20:12;;;;;;;;;;;22.20;57.10;;;;;;5028637;28;82529;-43
2022/07/15 00:22:38;;;;;;;;;;;22.20;57.10;;;;;;5031652;28;81941;-44
2022/07/15 00:25:04;;;;;;;;;;;22.10;57.00;;;;;;5028100;28;83014;-45
2022/07/15 00:27:29;;;;;;;;;;;22.10;57.00;;;;;;5028541;28;81980;-44
2022/07/15 00:29:55;;;;;;;;;;;22.10;57.00;;;;;;5028787;28;82711;-44
2022/07/15 00:32:20;;;;;;;;;;;22.10;57.00;;;;;;5028588;28;83224;-43
2022/07/15 00:34:46;;;;;;;;;;;22.10;57.10;;;;;;5028682;28;82061;-43
2022/07/15 00:37:12;;;;;;;;;;;22.10;57.10;;;;;;5028676;28;82021;-45
2022/07/15 00:39:37;;;;;;;;;;;22.00;57.00;;;;;;5027962;28;82082;-44
2022/07/15 00:42:03;;;;;;;;;;;22.00;57.00;;;;;;5029294;28;81440;-44
2022/07/15 00:44:28;;;;;;;;;;;22.00;57.10;;;;;;5030978;28;81964;-44
2022/07/15 00:46:54;;;;;;;;;;;22.00;57.10;;;;;;5028356;28;82278;-44
2022/07/15 00:49:19;;;;;;;;;;;22.00;57.10;;;;;;5027903;28;83035;-44
2022/07/15 00:51:52;;;;;;;;;;;21.90;57.10;;;;;;5028298;28;82734;-46
2022/07/15 00:54:22;;;;;;;;;;;22.00;57.10;;;;;;5028261;28;81787;-44
2022/07/15 00:56:52;;;;;;;;;;;21.90;57.10;;;;;;5027866;28;82365;-43
2022/07/15 00:59:19;;;;;;;;;;;21.90;57.10;;;;;;5027998;28;82465;-44
2022/07/15 01:01:47;;;;;;;;;;;21.90;57.10;;;;;;5028178;28;81974;-44
2022/07/15 01:04:13;;;;;;;;;;;21.90;57.10;;;;;;5030233;28;82508;-45
2022/07/15 01:06:39;;;;;;;;;;;21.90;57.10;;;;;;5028643;28;81188;-44
2022/07/15 01:09:04;;;;;;;;;;;21.80;57.10;;;;;;5028534;28;81946;-44
2022/07/15 01:11:30;;;;;;;;;;;21.80;57.10;;;;;;5026274;28;86094;-44
2022/07/15 01:13:59;;;;;;;;;;;21.80;57.10;;;;;;5027440;28;83001;-43
2022/07/15 01:16:25;;;;;;;;;;;21.80;57.10;;;;;;5027598;28;84481;-43
2022/07/15 01:18:51;;;;;;;;;;;21.80;57.10;;;;;;5027747;28;82918;-45
2022/07/15 01:21:16;;;;;;;;;;;21.80;57.10;;;;;;5027582;28;82072;-44
2022/07/15 01:23:42;;;;;;;;;;;21.80;57.10;;;;;;5027968;28;82340;-44
2022/07/15 01:26:11;;;;;;;;;;;21.70;57.00;;;;;;5030163;28;84668;-44
2022/07/15 01:28:37;;;;;;;;;;;21.70;57.00;;;;;;5028055;28;82442;-44
2022/07/15 01:31:02;;;;;;;;;;;21.70;57.00;;;;;;5026473;28;83784;-44
2022/07/15 01:33:29;;;;;;;;;;;21.70;57.10;;;;;;5027970;28;82220;-44
2022/07/15 01:35:55;;;;;;;;;;;21.70;57.00;;;;;;5027489;28;83586;-44
2022/07/15 01:38:21;;;;;;;;;;;21.70;57.00;;;;;;5026913;28;83278;-44
2022/07/15 01:40:46;;;;;;;;;;;21.60;57.00;;;;;;5027506;28;82105;-44
2022/07/15 01:43:12;;;;;;;;;;;21.60;57.00;;;;;;5027746;28;82612;-44
2022/07/15 01:45:42;;;;;;;;;;;21.70;57.00;;;;;;5026904;28;84538;-44
2022/07/15 01:48:07;;;;;;;;;;;21.60;57.00;;;;;;5030155;28;82411;-44
2022/07/15 01:50:33;;;;;;;;;;;21.60;57.00;;;;;;5027291;28;82946;-44
2022/07/15 01:52:58;;;;;;;;;;;21.60;57.00;;;;;;5027669;28;82105;-44
2022/07/15 01:55:24;;;;;;;;;;;21.50;57.00;;;;;;5026063;28;84051;-44
2022/07/15 01:57:49;;;;;;;;;;;21.60;57.00;;;;;;5027260;28;82455;-44
2022/07/15 02:00:17;;;;;;;;;;;21.50;56.90;;;;;;5027422;28;82119;-44
2022/07/15 02:02:43;;;;;;;;;;;21.50;57.00;;;;;;5026524;28;83889;-45
2022/07/15 02:05:08;;;;;;;;;;;21.50;57.00;;;;;;5027210;28;82925;-44
2022/07/15 02:07:34;;;;;;;;;;;21.50;56.90;;;;;;5027322;28;82105;-43
2022/07/15 02:09:59;;;;;;;;;;;21.50;57.00;;;;;;5029732;28;82548;-43
2022/07/15 02:12:25;;;;;;;;;;;21.50;56.90;;;;;;5027374;28;82065;-43
2022/07/15 02:14:50;;;;;;;;;;;21.40;57.00;;;;;;5026274;28;82267;-44
2022/07/15 02:17:16;;;;;;;;;;;21.40;57.00;;;;;;5026666;28;84377;-43
2022/07/15 02:19:41;;;;;;;;;;;21.40;56.80;;;;;;5027698;28;81330;-44
2022/07/15 02:22:07;;;;;;;;;;;21.40;57.00;;;;;;5027283;28;81831;-44
2022/07/15 02:24:32;;;;;;;;;;;21.40;56.90;;;;;;5026572;28;82994;-44
2022/07/15 02:26:58;;;;;;;;;;;21.40;56.80;;;;;;5026494;28;82940;-45
2022/07/15 02:29:23;;;;;;;;;;;21.40;56.90;;;;;;5026956;28;83429;-43
2022/07/15 02:31:49;;;;;;;;;;;21.30;56.90;;;;;;5029544;28;83497;-43
2022/07/15 02:34:14;;;;;;;;;;;21.40;57.00;;;;;;5026825;28;82433;-43
2022/07/15 02:36:40;;;;;;;;;;;21.30;57.00;;;;;;5026591;28;82969;-44
2022/07/15 02:39:05;;;;;;;;;;;21.30;56.90;;;;;;5026662;28;82081;-45
2022/07/15 02:41:31;;;;;;;;;;;21.30;56.90;;;;;;5026411;28;82694;-44
2022/07/15 02:43:59;;;;;;;;;;;21.20;56.90;;;;;;5027021;28;82227;-44
2022/07/15 02:46:24;;;;;;;;;;;21.20;56.90;;;;;;5025983;28;82133;-44
2022/07/15 02:48:50;;;;;;;;;;;21.20;56.90;;;;;;5026609;28;82606;-45
2022/07/15 02:51:15;;;;;;;;;;;21.20;56.90;;;;;;5025805;28;83020;-44
2022/07/15 02:53:41;;;;;;;;;;;21.20;57.00;;;;;;5029539;28;81726;-44
2022/07/15 02:56:06;;;;;;;;;;;21.20;56.90;;;;;;5026013;28;81862;-44
2022/07/15 02:58:32;;;;;;;;;;;21.20;56.90;;;;;;5026538;28;82008;-44
2022/07/15 03:00:58;;;;;;;;;;;21.10;56.90;;;;;;5026398;28;82508;-45
2022/07/15 03:03:25;;;;;;;;;;;21.10;56.90;;;;;;5026406;28;83218;-44
2022/07/15 03:05:50;;;;;;;;;;;21.10;56.90;;;;;;5026154;28;82069;-45
2022/07/15 03:08:16;;;;;;;;;;;21.10;57.00;;;;;;5026803;28;82521;-44
2022/07/15 03:10:42;;;;;;;;;;;21.10;57.00;;;;;;5025898;28;82940;-44
2022/07/15 03:13:08;;;;;;;;;;;21.00;56.90;;;;;;5028776;28;82056;-43
2022/07/15 03:15:34;;;;;;;;;;;21.00;56.90;;;;;;5024959;28;85740;-44
2022/07/15 03:17:59;;;;;;;;;;;21.00;56.90;;;;;;5026078;28;82012;-44
2022/07/15 03:20:25;;;;;;;;;;;21.00;57.00;;;;;;5024995;28;82031;-44
2022/07/15 03:22:50;;;;;;;;;;;21.00;57.00;;;;;;5026202;28;83157;-46
2022/07/15 03:25:16;;;;;;;;;;;20.90;56.80;;;;;;5025834;28;82104;-44
2022/07/15 03:27:41;;;;;;;;;;;20.90;56.90;;;;;;5025661;28;82440;-46
2022/07/15 03:30:07;;;;;;;;;;;20.90;56.90;;;;;;5025888;28;82954;-43
2022/07/15 03:32:32;;;;;;;;;;;20.90;56.90;;;;;;5026096;28;81209;-44
2022/07/15 03:34:58;;;;;;;;;;;20.90;56.90;;;;;;5028079;28;83199;-43
2022/07/15 03:37:23;;;;;;;;;;;20.90;56.90;;;;;;5025979;28;82017;-43
2022/07/15 03:39:49;;;;;;;;;;;20.90;56.90;;;;;;5024650;28;83032;-44
2022/07/15 03:42:14;;;;;;;;;;;20.90;56.90;;;;;;5025906;28;83221;-44
2022/07/15 03:44:40;;;;;;;;;;;20.90;57.00;;;;;;5025214;28;81980;-45
2022/07/15 03:47:07;;;;;;;;;;;20.80;56.90;;;;;;5026088;28;82014;-43
2022/07/15 03:49:32;;;;;;;;;;;20.80;57.00;;;;;;5025344;28;84623;-44
2022/07/15 03:51:58;;;;;;;;;;;20.80;57.00;;;;;;5025752;28;81972;-43
2022/07/15 03:54:24;;;;;;;;;;;20.80;57.00;;;;;;5025741;28;82541;-44
2022/07/15 03:56:50;;;;;;;;;;;20.80;57.60;;;;;;5028349;28;83562;-45
2022/07/15 03:59:16;;;;;;;;;;;20.80;57.00;;;;;;5025797;28;82009;-45
2022/07/15 04:01:41;;;;;;;;;;;20.70;57.00;;;;;;5025372;28;83068;-44
2022/07/15 04:04:08;;;;;;;;;;;20.70;57.10;;;;;;5024951;28;83032;-43
2022/07/15 04:06:34;;;;;;;;;;;20.70;57.00;;;;;;5025455;28;83344;-44
2022/07/15 04:08:59;;;;;;;;;;;20.70;57.00;;;;;;5025336;28;83073;-44
2022/07/15 04:11:25;;;;;;;;;;;20.70;57.00;;;;;;5025387;28;82144;-43
2022/07/15 04:13:51;;;;;;;;;;;20.70;57.10;;;;;;5025470;28;81924;-44
2022/07/15 04:16:16;;;;;;;;;;;20.60;57.00;;;;;;5025331;28;83013;-43
2022/07/15 04:18:42;;;;;;;;;;;20.70;57.10;;;;;;5028231;28;82213;-44
2022/07/15 04:21:07;;;;;;;;;;;20.60;57.00;;;;;;5025501;28;83757;-44
2022/07/15 04:23:33;;;;;;;;;;;20.60;57.10;;;;;;5025268;28;82259;-43
2022/07/15 04:25:59;;;;;;;;;;;20.60;57.10;;;;;;5025074;28;82438;-44
2022/07/15 04:28:24;;;;;;;;;;;20.60;57.10;;;;;;5024257;28;83462;-44
2022/07/15 04:30:51;;;;;;;;;;;20.60;57.10;;;;;;5025268;28;82463;-44
2022/07/15 04:33:16;;;;;;;;;;;20.60;57.20;;;;;;5025274;28;83923;-43
2022/07/15 04:35:42;;;;;;;;;;;20.50;57.20;;;;;;5024941;28;83261;-44
2022/07/15 04:38:07;;;;;;;;;;;20.60;57.10;;;;;;5025074;28;82103;-44
2022/07/15 04:40:33;;;;;;;;;;;20.50;57.20;;;;;;5031048;28;82863;-44
2022/07/15 04:42:59;;;;;;;;;;;20.50;57.20;;;;;;5028783;28;82111;-44
2022/07/15 04:45:25;;;;;;;;;;;20.50;57.20;;;;;;5028612;28;82256;-43
2022/07/15 04:47:51;;;;;;;;;;;20.50;57.20;;;;;;5028399;28;83001;-44
2022/07/15 04:53:00;;;;;;;;;;;20.50;57.20;;;;;;5027651;28;82901;-43
2022/07/15 04:55:26;;;;;;;;;;;20.50;57.20;;;;;;5028342;28;83293;-43
2022/07/15 04:57:52;;;;;;;;;;;20.40;57.30;;;;;;5028158;28;82041;-44
2022/07/15 05:00:17;;;;;;;;;;;20.40;57.30;;;;;;5031004;28;82871;-43
2022/07/15 05:02:43;;;;;;;;;;;20.40;57.30;;;;;;5028294;28;81962;-44
2022/07/15 05:05:09;;;;;;;;;;;20.40;57.30;;;;;;5028349;28;82573;-46
2022/07/15 05:07:35;;;;;;;;;;;20.40;57.40;;;;;;5028073;28;82919;-43
2022/07/15 05:10:00;;;;;;;;;;;20.40;57.40;;;;;;5028573;28;81284;-44
2022/07/15 05:12:26;;;;;;;;;;;20.40;57.40;;;;;;5028354;28;82118;-43
2022/07/15 05:14:51;;;;;;;;;;;20.40;57.50;;;;;;5028130;28;83129;-44
2022/07/15 05:17:17;;;;;;;;;;;20.40;57.60;;;;;;5027419;28;83014;-43
2022/07/15 05:19:42;;;;;;;;;;;20.40;57.60;;;;;;5027864;28;82373;-43
2022/07/15 05:22:08;;;;;;;;;;;20.40;57.70;;;;;;5030890;28;83004;-42
2022/07/15 05:24:33;;;;;;;;;;;20.40;57.60;;;;;;5027739;28;82607;-44
2022/07/15 05:26:59;;;;;;;;;;;20.40;57.60;;;;;;5027666;28;82979;-44
2022/07/15 05:29:25;;;;;;;;;;;20.40;57.60;;;;;;5028059;28;81993;-44
2022/07/15 05:31:51;;;;;;;;;;;20.40;57.80;;;;;;5027903;28;81995;-44
2022/07/15 05:34:16;;;;;;;;;;;20.40;57.70;;;;;;5028111;28;82315;-44
2022/07/15 05:36:42;;;;;;;;;;;20.40;57.70;;;;;;5027277;28;82119;-45
2022/07/15 05:39:07;;;;;;;;;;;20.40;57.70;;;;;;5027389;28;82560;-43
2022/07/15 05:41:33;;;;;;;;;;;20.40;57.80;;;;;;5026829;28;82824;-43
2022/07/15 05:43:59;;;;;;;;;;;20.40;57.90;;;;;;5030565;28;81965;-43
2022/07/15 05:46:24;;;;;;;;;;;20.40;57.80;;;;;;5026916;28;84517;-44
2022/07/15 05:48:50;;;;;;;;;;;20.40;57.90;;;;;;5027628;28;82068;-43
2022/07/15 05:51:15;;;;;;;;;;;20.40;57.90;;;;;;5027385;28;82534;-44
2022/07/15 05:53:41;;;;;;;;;;;20.50;57.90;;;;;;5027282;28;83266;-44
2022/07/15 05:56:07;;;;;;;;;;;20.40;58.00;;;;;;5027333;28;82019;-44
2022/07/15 05:58:32;;;;;;;;;;;20.40;58.00;;;;;;5027964;28;81644;-44
2022/07/15 06:00:58;;;;;;;;;;;20.40;58.00;;;;;;5027275;28;83223;-45
2022/07/15 06:03:23;;;;;;;;;;;20.40;58.00;;;;;;5027493;28;82200;-43
2022/07/15 06:05:49;;;;;;;;;;;20.40;58.00;;;;;;5029223;28;84247;-43
2022/07/15 06:08:14;;;;;;;;;;;20.40;58.00;;;;;;5027029;28;82157;-45
2022/07/15 06:10:41;;;;;;;;;;;20.40;57.90;;;;;;5027030;28;83626;-43
2022/07/15 06:13:06;;;;;;;;;;;20.50;58.70;;;;;;5026991;28;82228;-46
2022/07/15 06:15:32;;;;;;;;;;;20.50;58.00;;;;;;5027124;28;82128;-43
2022/07/15 06:17:57;;;;;;;;;;;20.50;58.00;;;;;;5027012;28;81939;-44
2022/07/15 06:20:23;;;;;;;;;;;20.50;58.10;;;;;;5026820;28;83467;-44
2022/07/15 06:22:49;;;;;;;;;;;20.50;58.20;;;;;;5027572;28;81346;-44
2022/07/15 06:25:14;;;;;;;;;;;20.50;58.10;;;;;;5026876;28;82092;-44
2022/07/15 06:27:40;;;;;;;;;;;20.50;58.20;;;;;;5029342;28;85235;-44
2022/07/15 06:30:06;;;;;;;;;;;20.50;58.10;;;;;;5026024;28;84067;-43
2022/07/15 06:32:31;;;;;;;;;;;20.40;58.10;;;;;;5026533;28;84782;-45
2022/07/15 06:34:57;;;;;;;;;;;20.50;58.20;;;;;;5026883;28;82360;-44
2022/07/15 06:37:22;;;;;;;;;;;20.50;58.20;;;;;;5027248;28;82521;-44
2022/07/15 06:39:48;;;;;;;;;;;20.50;58.80;;;;;;5026048;28;83208;-45
2022/07/15 06:42:14;;;;;;;;;;;20.50;58.30;;;;;;5026809;28;82089;-44
2022/07/15 06:44:39;;;;;;;;;;;20.50;58.30;;;;;;5026310;28;82285;-44
2022/07/15 06:47:06;;;;;;;;;;;20.50;58.30;;;;;;5027140;28;82213;-44
2022/07/15 06:49:32;;;;;;;;;;;20.50;58.30;;;;;;5029198;28;82079;-44
2022/07/15 06:51:58;;;;;;;;;;;20.50;58.20;;;;;;5026555;28;82027;-42
2022/07/15 06:54:24;;;;;;;;;;;20.50;58.20;;;;;;5026123;28;83153;-43
2022/07/15 06:56:50;;;;;;;;;;;20.50;58.40;;;;;;5026088;28;84874;-44
2022/07/15 06:59:16;;;;;;;;;;;20.50;58.40;;;;;;5026330;28;82940;-44
2022/07/15 07:01:41;;;;;;;;;;;20.50;58.40;;;;;;5025846;28;81932;-44
2022/07/15 07:04:07;;;;;;;;;;;20.50;58.40;;;;;;5026196;28;83218;-43
2022/07/15 07:06:33;;;;;;;;;;;20.60;58.40;;;;;;5026128;28;83259;-46
2022/07/15 07:08:58;;;;;;;;;;;20.50;58.40;;;;;;5028922;28;82073;-44
2022/07/15 07:11:24;;;;;;;;;;;20.50;58.40;;;;;;5026677;28;82040;-44
2022/07/15 07:13:50;;;;;;;;;;;20.50;58.40;;;;;;5026245;28;82615;-44
2022/07/15 07:16:15;;;;;;;;;;;20.50;58.50;;;;;;5025928;28;82896;-43
2022/07/15 07:18:41;;;;;;;;;;;20.50;58.50;;;;;;5025426;28;84111;-43
2022/07/15 07:21:06;;;;;;;;;;;20.60;58.50;;;;;;5026250;28;81987;-44
2022/07/15 07:23:32;;;;;;;;;;;20.50;58.50;;;;;;5026060;28;82582;-44
2022/07/15 07:25:58;;;;;;;;;;;20.50;58.50;;;;;;5025761;28;83386;-45
2022/07/15 07:28:24;;;;;;;;;;;20.60;58.60;;;;;;5025829;28;82135;-44
2022/07/15 07:30:52;;;;;;;;;;;20.60;58.50;;;;;;5028780;28;82199;-44
2022/07/15 07:33:18;;;;;;;;;;;20.60;58.60;;;;;;5025714;28;82026;-44
2022/07/15 07:35:43;;;;;;;;;;;20.50;58.60;;;;;;5026176;28;84123;-43
2022/07/15 07:38:10;;;;;;;;;;;20.60;58.50;;;;;;5025489;28;82672;-43
2022/07/15 07:40:35;;;;;;;;;;;20.60;58.50;;;;;;5025772;28;82016;-44
2022/07/15 07:43:01;;;;;;;;;;;20.60;58.60;;;;;;5025541;28;82851;-44
2022/07/15 07:45:28;;;;;;;;;;;20.60;58.60;;;;;;5025103;28;82102;-44
2022/07/15 07:47:54;;;;;;;;;;;20.60;58.50;;;;;;5025613;28;81944;-44
2022/07/15 07:50:20;;;;;;;;;;;20.60;58.50;;;;;;5025789;28;82376;-44
2022/07/15 07:52:45;;;;;;;;;;;20.60;58.70;;;;;;5028403;28;83547;-44
2022/07/15 07:55:11;;;;;;;;;;;20.60;58.60;;;;;;5025473;28;83954;-43
2022/07/15 07:57:46;;;;;;;;;;;20.60;58.40;;;;;;5025461;28;82994;-44
2022/07/15 08:00:12;;;;;;;;;;;20.60;58.40;;;;;;5026350;28;81494;-44
2022/07/15 08:02:38;;;;;;;;;;;20.60;58.50;;;;;;5025462;28;83210;-43
2022/07/15 08:05:03;;;;;;;;;;;20.60;58.50;;;;;;5025463;28;83225;-44
2022/07/15 08:07:29;;;;;;;;;;;20.70;58.60;;;;;;5024894;28;83048;-44
2022/07/15 08:09:54;;;;;;;;;;;20.70;58.60;;;;;;5025631;28;83296;-43
2022/07/15 08:12:20;;;;;;;;;;;20.70;58.50;;;;;;5025524;28;84217;-44
2022/07/15 08:14:45;;;;;;;;;;;20.70;58.50;;;;;;5031924;28;81996;-44
2022/07/15 08:17:11;;;;;;;;;;;20.70;58.50;;;;;;5028643;28;83775;-44
2022/07/15 08:19:37;;;;;;;;;;;20.70;58.50;;;;;;5028820;28;81942;-44
2022/07/15 08:22:02;;;;;;;;;;;20.70;58.40;;;;;;5029064;28;82238;-43
2022/07/15 08:24:28;;;;;;;;;;;20.70;58.40;;;;;;5028944;28;83888;-43
2022/07/15 08:26:53;;;;;;;;;;;20.70;58.30;;;;;;5028979;28;82042;-43
2022/07/15 08:29:19;;;;;;;;;;;20.70;58.30;;;;;;5028919;28;82608;-45
2022/07/15 08:31:46;;;;;;;;;;;20.80;58.40;;;;;;5027846;28;82977;-43
2022/07/15 08:34:12;;;;;;;;;;;20.80;58.40;;;;;;5028457;28;82153;-45
2022/07/15 08:36:37;;;;;;;;;;;20.80;58.40;;;;;;5031028;28;83840;-43
2022/07/15 08:39:03;;;;;;;;;;;20.80;58.40;;;;;;5028298;28;81694;-43
2022/07/15 08:41:28;;;;;;;;;;;20.80;58.40;;;;;;5028613;28;82508;-43
2022/07/15 08:43:54;;;;;;;;;;;20.80;58.40;;;;;;5028478;28;83153;-44
2022/07/15 08:46:20;;;;;;;;;;;20.80;58.40;;;;;;5028168;28;82101;-43
2022/07/15 08:48:50;;;;;;;;;;;20.80;58.40;;;;;;5028940;28;82917;-42
2022/07/15 08:51:17;;;;;;;;;;;20.80;58.40;;;;;;5028124;28;82896;-43
2022/07/15 08:53:43;;;;;;;;;;;20.90;58.40;;;;;;5028270;28;81964;-43
2022/07/15 08:56:09;;;;;;;;;;;20.80;58.40;;;;;;5027931;28;82970;-42
2022/07/15 08:58:36;;;;;;;;;;;20.90;58.50;;;;;;5031092;28;82123;-43
2022/07/15 09:01:01;;;;;;;;;;;20.90;58.50;;;;;;5028580;28;82394;-44
2022/07/15 09:03:27;;;;;;;;;;;20.90;58.50;;;;;;5028226;28;83167;-44
2022/07/15 09:05:52;;;;;;;;;;;20.90;58.50;;;;;;5028176;28;81976;-43
2022/07/15 09:08:19;;;;;;;;;;;20.90;58.50;;;;;;5027909;28;83204;-43
2022/07/15 09:10:46;;;;;;;;;;;20.90;58.40;;;;;;5027806;28;83593;-43
2022/07/15 09:13:30;;;;;;;;;;;20.90;58.40;;;;;;5028463;28;81658;-43
2022/07/15 09:15:57;;;;;;;;;;;21.00;58.40;;;;;;5027903;28;82995;-43
2022/07/15 09:18:27;;;;;;;;;;;21.00;58.40;;;;;;5030487;28;82970;-43
2022/07/15 09:20:53;;;;;;;;;;;21.00;58.40;;;;;;5027392;28;83353;-46
2022/07/15 09:23:21;;;;;;;;;;;21.00;58.40;;;;;;5027902;28;83018;-44
2022/07/15 09:25:50;;;;;;;;;;;21.00;58.40;;;;;;5027222;28;81963;-45
2022/07/15 09:28:16;;;;;;;;;;;21.00;58.40;;;;;;5027633;28;84282;-43
2022/07/15 09:33:47;;;;;;;;;;;21.10;58.40;;;;;;5027727;28;82020;-43
2022/07/15 09:36:18;;;;;;;;;;;21.10;58.30;;;;;;5027586;28;83009;-44
2022/07/15 09:38:45;;;;;;;;;;;21.10;58.30;;;;;;5027872;28;83764;-43
2022/07/15 09:41:25;;;;;;;;;;;21.10;58.30;;;;;;5030572;28;82580;-44
2022/07/15 09:43:52;;;;;;;;;;;21.20;58.40;;;;;;5027241;28;84617;-44
2022/07/15 09:46:19;;;;;;;;;;;21.20;58.40;;;;;;5026570;28;83035;-44
2022/07/15 09:48:45;;;;;;;;;;;21.20;58.40;;;;;;5026060;28;86980;-44
2022/07/15 09:51:11;;;;;;;;;;;21.20;58.40;;;;;;5027309;28;83252;-43
2022/07/15 09:53:38;;;;;;;;;;;21.20;58.30;;;;;;5027388;28;82100;-43
2022/07/15 09:56:06;;;;;;;;;;;21.30;58.40;;;;;;5027231;28;83943;-43
2022/07/15 09:58:31;;;;;;;;;;;21.30;58.40;;;;;;5026838;28;85094;-43
2022/07/15 10:00:57;;;;;;;;;;;21.30;58.50;;;;;;5027255;28;81895;-43
2022/07/15 10:03:23;;;;;;;;;;;21.30;58.40;;;;;;5030132;28;84018;-44
2022/07/15 10:05:54;;;;;;;;;;;21.30;58.40;;;;;;5026893;28;82486;-43
2022/07/15 10:08:20;;;;;;;;;;;21.40;58.40;;;;;;5027018;28;83973;-44
2022/07/15 10:10:48;;;;;;;;;;;21.30;58.60;;;;;;5026347;28;83910;-45
2022/07/15 10:13:19;;;;;;;;;;;21.40;58.40;;;;;;5027224;28;82060;-44
2022/07/15 10:16:03;;;;;;;;;;;21.40;58.40;;;;;;5027317;28;81940;-43
2022/07/15 10:18:46;;;;;;;;;;;21.40;58.40;;;;;;5026882;28;82475;-43
2022/07/15 10:21:21;;;;;;;;;;;21.40;58.40;;;;;;5027138;28;82033;-44
2022/07/15 10:24:07;;;;;;;;;;;21.50;58.40;;;;;;5027189;28;82927;-42
2022/07/15 10:26:40;;;;;;;;;;;21.50;58.40;;;;;;5021440;28;84088;-44
2022/07/15 10:29:06;;;;;;;;;;;21.50;58.30;;;;;;5027594;28;82644;-43
2022/07/15 10:31:32;;;;;;;;;;;21.50;58.30;;;;;;5026519;28;83276;-43
2022/07/15 10:34:04;;;;;;;;;;;21.60;58.40;;;;;;5026832;28;81974;-43
2022/07/15 10:36:49;;;;;;;;;;;21.60;58.40;;;;;;5024761;28;83841;-43
2022/07/15 10:39:15;;;;;;;;;;;21.60;58.60;;;;;;5026290;28;84547;-43
2022/07/15 10:41:47;;;;;;;;;;;21.60;58.40;;;;;;5026830;28;82052;-44
2022/07/15 10:44:13;;;;;;;;;;;21.70;58.60;;;;;;5026725;28;81949;-43
2022/07/15 10:46:38;;;;;;;;;;;21.70;58.50;;;;;;5026292;28;82902;-43
2022/07/15 10:49:23;;;;;;;;;;;21.70;58.50;;;;;;5029483;28;82062;-43
2022/07/15 10:51:49;;;;;;;;;;;21.70;58.50;;;;;;5026171;28;83299;-43
2022/07/15 10:54:17;;;;;;;;;;;21.70;58.50;;;;;;5027230;28;81383;-43
2022/07/15 10:56:44;;;;;;;;;;;21.80;58.50;;;;;;5026527;28;82146;-43
2022/07/15 10:59:16;;;;;;;;;;;21.80;58.40;;;;;;5026247;28;84389;-43
2022/07/15 11:01:43;;;;;;;;;;;21.80;58.50;;;;;;5025988;28;82859;-43
2022/07/15 11:04:19;;;;;;;;;;;21.90;58.40;;;;;;5026325;28;83471;-44
2022/07/15 11:09:44;;;;;;;;;;;21.90;58.40;;;;;;5026196;28;82480;-43
2022/07/15 11:12:09;;;;;;;;;;;22.00;58.30;;;;;;5028979;28;82399;-44
2022/07/15 11:14:41;;;;;;;;;;;22.00;58.30;;;;;;5026264;28;82596;-44
2022/07/15 11:17:06;;;;;;;;;;;22.00;58.40;;;;;;5026081;28;82955;-43
2022/07/15 11:19:32;;;;;;;;;;;22.00;58.30;;;;;;5026517;28;82181;-43
2022/07/15 11:21:58;;;;;;;;;;;22.00;58.30;;;;;;5025970;28;82010;-43
2022/07/15 11:24:24;;;;;;;;;;;22.00;58.30;;;;;;5026264;28;82091;-44
2022/07/15 11:26:50;;;;;;;;;;;22.10;58.20;;;;;;5025120;28;85288;-44
2022/07/15 11:29:15;;;;;;;;;;;22.10;58.30;;;;;;5026081;28;82173;-43
2022/07/15 11:31:42;;;;;;;;;;;22.10;58.20;;;;;;5028799;28;83752;-43
2022/07/15 11:34:08;;;;;;;;;;;22.10;58.90;;;;;;5025916;28;81963;-43
2022/07/15 11:36:33;;;;;;;;;;;22.20;58.10;;;;;;5025592;28;82510;-43
2022/07/15 11:38:59;;;;;;;;;;;22.20;58.10;;;;;;5025493;28;84383;-42
2022/07/15 11:44:29;;;;;;;;;;;22.20;58.10;;;;;;5026408;28;81585;-44
2022/07/15 11:46:55;;;;;;;;;;;22.30;58.10;;;;;;5024980;28;84272;-43
2022/07/15 11:49:31;;;;;;;;;;;22.30;58.00;;;;;;5025784;28;82068;-44
2022/07/15 11:51:57;;;;;;;;;;;22.30;57.80;;;;;;5025209;28;82789;-44
2022/07/15 11:54:22;;;;;;;;;;;22.30;57.90;;;;;;5028451;28;82947;-43
2022/07/15 11:56:57;;;;;;;;;;;22.30;57.90;;;;;;5025434;28;83769;-44
2022/07/15 11:59:22;;;;;;;;;;;22.40;57.80;;;;;;5025366;28;84429;-43
2022/07/15 12:01:59;;;;;;;;;;;22.40;57.80;;;;;;5025806;28;82164;-44
2022/07/15 12:04:27;;;;;;;;;;;22.40;57.70;;;;;;5025642;28;82325;-43
2022/07/15 12:06:53;;;;;;;;;;;22.40;57.60;;;;;;5025270;28;84484;-43
2022/07/15 12:09:18;;;;;;;;;;;22.40;57.60;;;;;;5026382;28;81755;-44
2022/07/15 12:11:44;;;;;;;;;;;22.50;57.60;;;;;;5025450;28;82446;-45
2022/07/15 12:14:10;;;;;;;;;;;22.50;57.60;;;;;;5025178;28;83144;-43
2022/07/15 12:16:39;;;;;;;;;;;22.50;57.50;;;;;;5027495;28;83104;-45
2022/07/15 12:19:07;;;;;;;;;;;22.60;57.30;;;;;;5025349;28;82963;-43
2022/07/15 12:21:33;;;;;;;;;;;22.60;57.30;;;;;;5025295;28;82052;-44
2022/07/15 12:23:59;;;;;;;;;;;22.60;57.30;;;;;;5025562;28;82574;-44
2022/07/15 12:26:25;;;;;;;;;;;22.60;57.30;;;;;;5025169;28;83142;-43
2022/07/15 12:28:57;;;;;;;;;;;22.60;57.30;;;;;;5025315;28;82126;-44
2022/07/15 12:31:30;;;;;;;;;;;22.60;57.30;;;;;;5025188;28;82668;-43
2022/07/15 12:33:55;;;;;;;;;;;22.70;57.10;;;;;;5025244;28;84510;-43
2022/07/15 12:36:25;;;;;;;;;;;22.70;56.90;;;;;;5025131;28;82182;-43
2022/07/15 12:39:02;;;;;;;;;;;22.70;56.90;;;;;;5027621;28;82549;-43
2022/07/15 12:41:27;;;;;;;;;;;22.80;57.10;;;;;;5024373;28;83558;-44
2022/07/15 12:43:55;;;;;;;;;;;22.80;56.80;;;;;;5024853;28;84761;-43
2022/07/15 12:46:40;;;;;;;;;;;22.80;56.80;;;;;;5024280;28;84631;-43
2022/07/15 12:49:07;;;;;;;;;;;22.80;56.80;;;;;;5024665;28;82390;-43
2022/07/15 12:51:33;;;;;;;;;;;22.80;56.70;;;;;;5024798;28;84042;-45
2022/07/15 12:54:05;;;;;;;;;;;22.90;56.60;;;;;;5024564;28;82388;-43
2022/07/15 12:56:49;;;;;;;;;;;22.90;56.60;;;;;;5024684;28;82041;-43
2022/07/15 12:59:14;;;;;;;;;;;22.90;56.60;;;;;;5025964;28;82505;-47
2022/07/15 13:01:44;;;;;;;;;;;23.00;56.60;;;;;;5030962;28;82125;-43
2022/07/15 13:04:09;;;;;;;;;;;23.00;56.60;;;;;;5028200;28;82188;-43
2022/07/15 13:06:35;;;;;;;;;;;23.00;56.60;;;;;;5027085;28;84107;-43
2022/07/15 13:09:00;;;;;;;;;;;23.00;56.50;;;;;;5028520;28;82113;-45
2022/07/15 13:11:26;;;;;;;;;;;23.10;56.50;;;;;;5028184;28;82537;-43
2022/07/15 13:13:51;;;;;;;;;;;23.10;56.50;;;;;;5027961;28;82546;-43
2022/07/15 13:16:17;;;;;;;;;;;23.10;56.40;;;;;;5028129;28;82136;-45
2022/07/15 13:18:42;;;;;;;;;;;23.10;56.30;;;;;;5028084;28;82491;-44
2022/07/15 13:21:08;;;;;;;;;;;23.10;56.20;;;;;;5027807;28;83059;-43
2022/07/15 13:23:33;;;;;;;;;;;23.20;56.40;;;;;;5031133;28;81267;-43
2022/07/15 13:25:59;;;;;;;;;;;23.20;56.40;;;;;;5027518;28;83662;-44
2022/07/15 13:28:24;;;;;;;;;;;23.20;56.40;;;;;;5027630;28;81903;-43
2022/07/15 13:30:51;;;;;;;;;;;23.30;56.40;;;;;;5027318;28;83040;-44
2022/07/15 13:33:16;;;;;;;;;;;23.30;56.30;;;;;;5027561;28;83023;-42
2022/07/15 13:35:42;;;;;;;;;;;23.30;56.20;;;;;;5027565;28;82173;-42
2022/07/15 13:38:08;;;;;;;;;;;23.40;56.30;;;;;;5027765;28;82667;-42
2022/07/15 13:40:33;;;;;;;;;;;23.40;56.10;;;;;;5027401;28;83071;-44
2022/07/15 13:42:59;;;;;;;;;;;23.40;56.30;;;;;;5030498;28;82046;-44
2022/07/15 13:45:25;;;;;;;;;;;23.40;56.30;;;;;;5027183;28;82878;-45
2022/07/15 13:47:50;;;;;;;;;;;23.40;56.10;;;;;;5027866;28;81427;-43
2022/07/15 13:53:00;;;;;;;;;;;23.50;55.90;;;;;;5027708;28;82706;-43
2022/07/15 13:55:26;;;;;;;;;;;23.60;55.70;;;;;;5026709;28;83041;-43
2022/07/15 13:57:52;;;;;;;;;;;23.50;55.70;;;;;;5027663;28;82980;-44
2022/07/15 14:00:21;;;;;;;;;;;23.60;55.70;;;;;;5027020;28;83494;-43
2022/07/15 14:02:47;;;;;;;;;;;23.60;55.50;;;;;;5026987;28;82035;-44
2022/07/15 14:05:13;;;;;;;;;;;23.60;55.30;;;;;;5029719;28;82330;-44
2022/07/15 14:07:39;;;;;;;;;;;23.70;55.40;;;;;;5027525;28;82069;-43
2022/07/15 14:10:05;;;;;;;;;;;23.70;55.10;;;;;;5027182;28;82069;-43
2022/07/15 14:12:30;;;;;;;;;;;23.70;55.00;;;;;;5027731;28;82145;-44
2022/07/15 14:14:56;;;;;;;;;;;23.80;55.30;;;;;;5027335;28;82006;-43
2022/07/15 14:17:21;;;;;;;;;;;23.80;55.20;;;;;;5027410;28;82413;-44
2022/07/15 14:19:47;;;;;;;;;;;23.90;55.40;;;;;;5025839;28;85513;-43
2022/07/15 14:22:12;;;;;;;;;;;23.80;55.30;;;;;;5026987;28;82532;-43
2022/07/15 14:24:38;;;;;;;;;;;23.90;55.40;;;;;;5027092;28;82435;-44
2022/07/15 14:27:03;;;;;;;;;;;23.90;55.60;;;;;;5029718;28;83321;-43